sensor_id;sensor_type;location;lat;lon;timestamp;temperature;humidity
298;DHT22;133;49.626;9.680;2023-03-23T00:02:28;14.70;70.40
298;DHT22;133;49.626;9.680;2023-03-23T00:04:55;14.70;70.70
298;DHT22;133;49.626;9.680;2023-03-23T00:07:22;14.70;70.50
298;DHT22;133;49.626;9.680;2023-03-23T00:09:50;14.70;70.60
298;DHT22;133;49.626;9.680;2023-03-23T00:12:23;14.60;70.70
298;DHT22;133;49.626;9.680;2023-03-23T00:15:02;14.60;70.60
298;DHT22;133;49.626;9.680;2023-03-23T00:17:29;14.50;70.80
298;DHT22;133;49.626;9.680;2023-03-23T00:19:55;14.50;70.50
298;DHT22;133;49.626;9.680;2023-03-23T00:22:21;14.50;70.30
298;DHT22;133;49.626;9.680;2023-03-23T00:24:51;14.50;70.50
298;DHT22;133;49.626;9.680;2023-03-23T00:27:17;14.50;70.30
298;DHT22;133;49.626;9.680;2023-03-23T00:29:43;14.50;70.00
298;DHT22;133;49.626;9.680;2023-03-23T00:32:10;14.50;70.10
298;DHT22;133;49.626;9.680;2023-03-23T00:34:38;14.50;70.00
298;DHT22;133;49.626;9.680;2023-03-23T00:37:04;14.50;69.80
298;DHT22;133;49.626;9.680;2023-03-23T00:39:29;14.50;69.70
298;DHT22;133;49.626;9.680;2023-03-23T00:41:55;14.50;69.50
298;DHT22;133;49.626;9.680;2023-03-23T00:44:27;14.50;69.50
298;DHT22;133;49.626;9.680;2023-03-23T00:46:54;14.50;69.40
298;DHT22;133;49.626;9.680;2023-03-23T00:49:22;14.60;69.30
298;DHT22;133;49.626;9.680;2023-03-23T00:51:52;14.60;69.00
298;DHT22;133;49.626;9.680;2023-03-23T00:54:18;14.60;69.10
298;DHT22;133;49.626;9.680;2023-03-23T00:56:44;14.60;69.00
298;DHT22;133;49.626;9.680;2023-03-23T00:59:09;14.60;69.00
298;DHT22;133;49.626;9.680;2023-03-23T01:01:36;14.50;69.30
298;DHT22;133;49.626;9.680;2023-03-23T01:04:02;14.50;69.00
298;DHT22;133;49.626;9.680;2023-03-23T01:06:35;14.50;69.00
298;DHT22;133;49.626;9.680;2023-03-23T01:09:05;14.50;69.00
298;DHT22;133;49.626;9.680;2023-03-23T01:11:31;14.40;69.20
298;DHT22;133;49.626;9.680;2023-03-23T01:13:57;14.40;69.10
298;DHT22;133;49.626;9.680;2023-03-23T01:16:23;14.50;69.00
298;DHT22;133;49.626;9.680;2023-03-23T01:18:49;14.40;69.10
298;DHT22;133;49.626;9.680;2023-03-23T01:21:18;14.50;69.10
298;DHT22;133;49.626;9.680;2023-03-23T01:23:44;14.50;69.00
298;DHT22;133;49.626;9.680;2023-03-23T01:26:15;14.50;68.60
298;DHT22;133;49.626;9.680;2023-03-23T01:28:41;14.50;68.70
298;DHT22;133;49.626;9.680;2023-03-23T01:31:12;14.50;68.90
298;DHT22;133;49.626;9.680;2023-03-23T01:33:39;14.50;69.00
298;DHT22;133;49.626;9.680;2023-03-23T01:36:11;14.40;69.00
298;DHT22;133;49.626;9.680;2023-03-23T01:38:36;14.40;68.90
298;DHT22;133;49.626;9.680;2023-03-23T01:41:03;14.40;69.00
298;DHT22;133;49.626;9.680;2023-03-23T01:43:29;14.40;68.90
298;DHT22;133;49.626;9.680;2023-03-23T01:45:55;14.40;69.00
298;DHT22;133;49.626;9.680;2023-03-23T01:48:23;14.40;68.70
298;DHT22;133;49.626;9.680;2023-03-23T01:50:55;14.40;68.90
298;DHT22;133;49.626;9.680;2023-03-23T01:53:22;14.30;68.70
298;DHT22;133;49.626;9.680;2023-03-23T01:55:52;14.40;68.80
298;DHT22;133;49.626;9.680;2023-03-23T01:58:26;14.30;68.90
298;DHT22;133;49.626;9.680;2023-03-23T02:00:54;14.20;68.90
298;DHT22;133;49.626;9.680;2023-03-23T02:03:21;14.20;69.00
298;DHT22;133;49.626;9.680;2023-03-23T02:05:49;14.20;68.90
298;DHT22;133;49.626;9.680;2023-03-23T02:08:17;14.20;68.90
298;DHT22;133;49.626;9.680;2023-03-23T02:10:43;14.20;69.00
298;DHT22;133;49.626;9.680;2023-03-23T02:13:10;14.20;69.00
298;DHT22;133;49.626;9.680;2023-03-23T02:15:49;14.10;69.10
298;DHT22;133;49.626;9.680;2023-03-23T02:18:40;14.10;69.20
298;DHT22;133;49.626;9.680;2023-03-23T02:30:06;14.20;69.00
298;DHT22;133;49.626;9.680;2023-03-23T02:35:21;14.30;69.00
298;DHT22;133;49.626;9.680;2023-03-23T02:40:36;14.30;68.90
298;DHT22;133;49.626;9.680;2023-03-23T02:43:07;14.30;68.60
298;DHT22;133;49.626;9.680;2023-03-23T02:45:36;14.30;68.70
298;DHT22;133;49.626;9.680;2023-03-23T02:48:04;14.30;68.80
298;DHT22;133;49.626;9.680;2023-03-23T02:50:32;14.30;69.00
298;DHT22;133;49.626;9.680;2023-03-23T02:53:00;14.30;69.00
298;DHT22;133;49.626;9.680;2023-03-23T02:55:27;14.30;69.10
298;DHT22;133;49.626;9.680;2023-03-23T02:57:55;14.20;69.20
298;DHT22;133;49.626;9.680;2023-03-23T03:00:22;14.10;69.30
298;DHT22;133;49.626;9.680;2023-03-23T03:02:50;14.10;69.40
298;DHT22;133;49.626;9.680;2023-03-23T03:11:08;14.20;69.10
298;DHT22;133;49.626;9.680;2023-03-23T03:13:47;14.20;69.20
298;DHT22;133;49.626;9.680;2023-03-23T03:19:05;14.20;68.90
298;DHT22;133;49.626;9.680;2023-03-23T03:21:36;14.30;68.80
298;DHT22;133;49.626;9.680;2023-03-23T03:24:03;14.30;68.80
298;DHT22;133;49.626;9.680;2023-03-23T03:26:31;14.40;68.80
298;DHT22;133;49.626;9.680;2023-03-23T03:29:00;14.40;68.80
298;DHT22;133;49.626;9.680;2023-03-23T03:31:30;14.50;69.10
298;DHT22;133;49.626;9.680;2023-03-23T03:33:57;14.50;69.50
298;DHT22;133;49.626;9.680;2023-03-23T03:36:27;14.60;69.50
298;DHT22;133;49.626;9.680;2023-03-23T03:38:53;14.60;69.70
298;DHT22;133;49.626;9.680;2023-03-23T03:41:22;14.60;69.60
298;DHT22;133;49.626;9.680;2023-03-23T03:43:48;14.60;69.60
298;DHT22;133;49.626;9.680;2023-03-23T03:46:13;14.60;69.50
298;DHT22;133;49.626;9.680;2023-03-23T03:48:39;14.60;69.50
298;DHT22;133;49.626;9.680;2023-03-23T03:51:05;14.60;69.70
298;DHT22;133;49.626;9.680;2023-03-23T03:53:30;14.60;69.20
298;DHT22;133;49.626;9.680;2023-03-23T03:55:56;14.60;69.40
298;DHT22;133;49.626;9.680;2023-03-23T03:58:25;14.50;69.70
298;DHT22;133;49.626;9.680;2023-03-23T04:00:59;14.50;69.50
298;DHT22;133;49.626;9.680;2023-03-23T04:03:25;14.50;70.20
298;DHT22;133;49.626;9.680;2023-03-23T04:05:52;14.50;70.50
298;DHT22;133;49.626;9.680;2023-03-23T04:08:18;14.50;70.60
298;DHT22;133;49.626;9.680;2023-03-23T04:10:44;14.50;70.70
298;DHT22;133;49.626;9.680;2023-03-23T04:13:09;14.40;70.90
298;DHT22;133;49.626;9.680;2023-03-23T04:15:35;14.40;71.10
298;DHT22;133;49.626;9.680;2023-03-23T04:18:01;14.30;71.40
298;DHT22;133;49.626;9.680;2023-03-23T04:20:26;14.30;71.70
298;DHT22;133;49.626;9.680;2023-03-23T04:22:52;14.30;71.60
298;DHT22;133;49.626;9.680;2023-03-23T04:25:21;14.30;71.70
298;DHT22;133;49.626;9.680;2023-03-23T04:27:51;14.30;72.20
298;DHT22;133;49.626;9.680;2023-03-23T04:30:21;14.30;72.00
298;DHT22;133;49.626;9.680;2023-03-23T04:32:48;14.30;72.00
298;DHT22;133;49.626;9.680;2023-03-23T04:35:17;14.30;72.00
298;DHT22;133;49.626;9.680;2023-03-23T04:37:43;14.20;71.90
298;DHT22;133;49.626;9.680;2023-03-23T04:40:10;14.20;71.60
298;DHT22;133;49.626;9.680;2023-03-23T04:42:43;14.20;71.70
298;DHT22;133;49.626;9.680;2023-03-23T04:45:17;14.20;72.00
298;DHT22;133;49.626;9.680;2023-03-23T04:47:50;14.20;72.00
298;DHT22;133;49.626;9.680;2023-03-23T04:50:23;14.20;71.90
298;DHT22;133;49.626;9.680;2023-03-23T04:52:50;14.20;71.80
298;DHT22;133;49.626;9.680;2023-03-23T04:55:17;14.10;71.40
298;DHT22;133;49.626;9.680;2023-03-23T04:57:43;14.10;71.50
298;DHT22;133;49.626;9.680;2023-03-23T05:00:11;14.20;71.40
298;DHT22;133;49.626;9.680;2023-03-23T05:02:41;14.10;71.40
298;DHT22;133;49.626;9.680;2023-03-23T05:05:07;14.10;71.40
298;DHT22;133;49.626;9.680;2023-03-23T05:07:34;14.10;71.40
298;DHT22;133;49.626;9.680;2023-03-23T05:10:00;14.10;71.60
298;DHT22;133;49.626;9.680;2023-03-23T05:12:25;14.10;71.70
298;DHT22;133;49.626;9.680;2023-03-23T05:14:51;14.20;71.50
298;DHT22;133;49.626;9.680;2023-03-23T05:17:17;14.20;71.10
298;DHT22;133;49.626;9.680;2023-03-23T05:19:44;14.30;71.10
298;DHT22;133;49.626;9.680;2023-03-23T05:22:15;14.30;71.20
298;DHT22;133;49.626;9.680;2023-03-23T05:24:41;14.30;71.30
298;DHT22;133;49.626;9.680;2023-03-23T05:27:11;14.30;71.10
298;DHT22;133;49.626;9.680;2023-03-23T05:29:37;14.30;70.90
298;DHT22;133;49.626;9.680;2023-03-23T05:32:07;14.30;71.40
298;DHT22;133;49.626;9.680;2023-03-23T05:34:35;14.30;72.30
298;DHT22;133;49.626;9.680;2023-03-23T05:37:02;14.20;71.80
298;DHT22;133;49.626;9.680;2023-03-23T05:39:29;14.20;71.90
298;DHT22;133;49.626;9.680;2023-03-23T05:41:55;14.20;72.60
298;DHT22;133;49.626;9.680;2023-03-23T05:44:21;14.10;73.20
298;DHT22;133;49.626;9.680;2023-03-23T05:46:47;14.10;73.00
298;DHT22;133;49.626;9.680;2023-03-23T05:49:14;14.00;73.60
298;DHT22;133;49.626;9.680;2023-03-23T05:51:42;14.00;73.90
298;DHT22;133;49.626;9.680;2023-03-23T05:54:08;13.90;73.40
298;DHT22;133;49.626;9.680;2023-03-23T05:56:33;14.00;74.00
298;DHT22;133;49.626;9.680;2023-03-23T05:58:59;13.90;75.10
298;DHT22;133;49.626;9.680;2023-03-23T06:01:26;13.80;74.00
298;DHT22;133;49.626;9.680;2023-03-23T06:03:52;13.80;74.70
298;DHT22;133;49.626;9.680;2023-03-23T06:06:20;13.70;74.90
298;DHT22;133;49.626;9.680;2023-03-23T06:08:46;13.70;74.30
298;DHT22;133;49.626;9.680;2023-03-23T06:11:14;13.80;74.10
298;DHT22;133;49.626;9.680;2023-03-23T06:13:39;13.70;74.30
298;DHT22;133;49.626;9.680;2023-03-23T06:16:05;13.70;74.80
298;DHT22;133;49.626;9.680;2023-03-23T06:18:31;13.70;74.90
298;DHT22;133;49.626;9.680;2023-03-23T06:20:59;13.60;74.80
298;DHT22;133;49.626;9.680;2023-03-23T06:23:26;13.70;75.30
298;DHT22;133;49.626;9.680;2023-03-23T06:25:59;13.60;75.60
298;DHT22;133;49.626;9.680;2023-03-23T06:28:25;13.70;75.80
298;DHT22;133;49.626;9.680;2023-03-23T06:30:52;13.70;75.20
298;DHT22;133;49.626;9.680;2023-03-23T06:33:18;13.60;75.50
298;DHT22;133;49.626;9.680;2023-03-23T06:35:44;13.70;75.50
298;DHT22;133;49.626;9.680;2023-03-23T06:38:10;13.70;75.30
298;DHT22;133;49.626;9.680;2023-03-23T06:40:36;13.70;75.20
298;DHT22;133;49.626;9.680;2023-03-23T06:43:02;13.70;75.40
298;DHT22;133;49.626;9.680;2023-03-23T06:45:29;13.80;75.50
298;DHT22;133;49.626;9.680;2023-03-23T06:47:55;13.80;75.30
298;DHT22;133;49.626;9.680;2023-03-23T06:50:22;13.80;75.30
298;DHT22;133;49.626;9.680;2023-03-23T06:52:48;13.70;75.40
298;DHT22;133;49.626;9.680;2023-03-23T06:55:15;13.80;75.50
298;DHT22;133;49.626;9.680;2023-03-23T06:57:42;13.80;75.30
298;DHT22;133;49.626;9.680;2023-03-23T07:00:09;13.70;75.50
298;DHT22;133;49.626;9.680;2023-03-23T07:02:38;13.80;75.50
298;DHT22;133;49.626;9.680;2023-03-23T07:05:04;13.90;75.00
298;DHT22;133;49.626;9.680;2023-03-23T07:07:29;13.90;74.40
298;DHT22;133;49.626;9.680;2023-03-23T07:09:55;13.90;74.40
298;DHT22;133;49.626;9.680;2023-03-23T07:12:22;13.90;74.40
298;DHT22;133;49.626;9.680;2023-03-23T07:14:48;14.00;73.80
298;DHT22;133;49.626;9.680;2023-03-23T07:17:13;14.00;73.90
298;DHT22;133;49.626;9.680;2023-03-23T07:19:39;14.00;73.80
298;DHT22;133;49.626;9.680;2023-03-23T07:22:06;14.10;73.50
298;DHT22;133;49.626;9.680;2023-03-23T07:24:33;14.10;73.80
298;DHT22;133;49.626;9.680;2023-03-23T07:26:59;14.10;73.80
298;DHT22;133;49.626;9.680;2023-03-23T07:29:24;14.00;74.10
298;DHT22;133;49.626;9.680;2023-03-23T07:31:50;14.10;73.90
298;DHT22;133;49.626;9.680;2023-03-23T07:34:18;14.10;74.20
298;DHT22;133;49.626;9.680;2023-03-23T07:36:44;14.00;74.30
298;DHT22;133;49.626;9.680;2023-03-23T07:39:11;14.10;74.20
298;DHT22;133;49.626;9.680;2023-03-23T07:41:37;14.10;74.40
298;DHT22;133;49.626;9.680;2023-03-23T07:44:03;14.10;74.50
298;DHT22;133;49.626;9.680;2023-03-23T07:46:29;14.10;74.60
298;DHT22;133;49.626;9.680;2023-03-23T07:48:55;14.10;74.60
298;DHT22;133;49.626;9.680;2023-03-23T07:51:22;14.20;74.60
298;DHT22;133;49.626;9.680;2023-03-23T07:53:48;14.20;74.70
298;DHT22;133;49.626;9.680;2023-03-23T07:56:16;14.30;74.70
298;DHT22;133;49.626;9.680;2023-03-23T07:58:45;14.30;74.80
298;DHT22;133;49.626;9.680;2023-03-23T08:01:10;14.30;74.80
298;DHT22;133;49.626;9.680;2023-03-23T08:03:37;14.40;74.80
298;DHT22;133;49.626;9.680;2023-03-23T08:06:03;14.40;75.00
298;DHT22;133;49.626;9.680;2023-03-23T08:08:29;14.50;74.80
298;DHT22;133;49.626;9.680;2023-03-23T08:10:55;14.50;74.80
298;DHT22;133;49.626;9.680;2023-03-23T08:13:21;14.50;74.80
298;DHT22;133;49.626;9.680;2023-03-23T08:15:47;14.50;75.00
298;DHT22;133;49.626;9.680;2023-03-23T08:18:14;14.50;75.00
298;DHT22;133;49.626;9.680;2023-03-23T08:20:40;14.60;75.30
298;DHT22;133;49.626;9.680;2023-03-23T08:23:05;14.60;75.40
298;DHT22;133;49.626;9.680;2023-03-23T08:25:32;14.50;75.50
298;DHT22;133;49.626;9.680;2023-03-23T08:27:59;14.40;76.00
298;DHT22;133;49.626;9.680;2023-03-23T08:30:26;14.40;76.50
298;DHT22;133;49.626;9.680;2023-03-23T08:32:54;14.40;76.80
298;DHT22;133;49.626;9.680;2023-03-23T08:35:20;14.40;77.10
298;DHT22;133;49.626;9.680;2023-03-23T08:37:47;14.40;77.40
298;DHT22;133;49.626;9.680;2023-03-23T08:40:17;14.40;77.80
298;DHT22;133;49.626;9.680;2023-03-23T08:42:45;14.30;78.60
298;DHT22;133;49.626;9.680;2023-03-23T08:45:14;14.10;79.20
298;DHT22;133;49.626;9.680;2023-03-23T08:47:41;14.00;80.00
298;DHT22;133;49.626;9.680;2023-03-23T08:50:10;13.90;80.70
298;DHT22;133;49.626;9.680;2023-03-23T08:52:36;13.80;81.40
298;DHT22;133;49.626;9.680;2023-03-23T08:55:03;13.80;81.60
298;DHT22;133;49.626;9.680;2023-03-23T08:57:28;13.80;81.80
298;DHT22;133;49.626;9.680;2023-03-23T08:59:54;13.80;81.70
298;DHT22;133;49.626;9.680;2023-03-23T09:02:25;13.80;82.10
298;DHT22;133;49.626;9.680;2023-03-23T09:04:52;13.80;82.20
298;DHT22;133;49.626;9.680;2023-03-23T09:07:18;13.70;82.70
298;DHT22;133;49.626;9.680;2023-03-23T09:09:44;13.60;82.90
298;DHT22;133;49.626;9.680;2023-03-23T09:12:11;13.50;83.40
298;DHT22;133;49.626;9.680;2023-03-23T09:14:38;13.60;83.30
298;DHT22;133;49.626;9.680;2023-03-23T09:17:04;13.70;83.20
298;DHT22;133;49.626;9.680;2023-03-23T09:19:32;13.80;83.10
298;DHT22;133;49.626;9.680;2023-03-23T09:21:58;13.90;82.80
298;DHT22;133;49.626;9.680;2023-03-23T09:24:24;13.90;83.00
298;DHT22;133;49.626;9.680;2023-03-23T09:26:50;14.00;82.90
298;DHT22;133;49.626;9.680;2023-03-23T09:29:16;14.20;82.40
298;DHT22;133;49.626;9.680;2023-03-23T09:31:42;14.40;82.00
298;DHT22;133;49.626;9.680;2023-03-23T09:34:09;14.70;80.80
298;DHT22;133;49.626;9.680;2023-03-23T09:36:37;14.80;80.60
298;DHT22;133;49.626;9.680;2023-03-23T09:39:05;14.80;80.00
298;DHT22;133;49.626;9.680;2023-03-23T09:49:38;14.80;78.70
298;DHT22;133;49.626;9.680;2023-03-23T09:52:14;14.80;79.00
298;DHT22;133;49.626;9.680;2023-03-23T09:54:47;14.70;79.20
298;DHT22;133;49.626;9.680;2023-03-23T09:57:24;14.60;79.30
298;DHT22;133;49.626;9.680;2023-03-23T10:00:08;14.50;79.60
298;DHT22;133;49.626;9.680;2023-03-23T10:05:45;14.50;80.20
298;DHT22;133;49.626;9.680;2023-03-23T10:08:18;14.60;80.30
298;DHT22;133;49.626;9.680;2023-03-23T10:11:14;14.80;79.60
298;DHT22;133;49.626;9.680;2023-03-23T10:13:50;14.60;79.80
298;DHT22;133;49.626;9.680;2023-03-23T10:16:21;14.60;80.10
298;DHT22;133;49.626;9.680;2023-03-23T10:21:35;14.40;80.40
298;DHT22;133;49.626;9.680;2023-03-23T10:24:04;14.40;80.40
298;DHT22;133;49.626;9.680;2023-03-23T10:29:27;14.40;80.10
298;DHT22;133;49.626;9.680;2023-03-23T10:32:00;14.40;80.00
298;DHT22;133;49.626;9.680;2023-03-23T10:34:28;14.40;79.50
298;DHT22;133;49.626;9.680;2023-03-23T10:37:08;14.50;79.50
298;DHT22;133;49.626;9.680;2023-03-23T10:39:55;14.50;79.50
298;DHT22;133;49.626;9.680;2023-03-23T10:44:50;14.30;79.50
298;DHT22;133;49.626;9.680;2023-03-23T10:47:16;14.30;78.80
298;DHT22;133;49.626;9.680;2023-03-23T10:52:34;14.50;78.70
298;DHT22;133;49.626;9.680;2023-03-23T10:55:08;14.50;78.50
298;DHT22;133;49.626;9.680;2023-03-23T10:57:36;14.60;78.60
298;DHT22;133;49.626;9.680;2023-03-23T11:00:27;14.60;78.20
298;DHT22;133;49.626;9.680;2023-03-23T11:03:17;14.80;78.30
298;DHT22;133;49.626;9.680;2023-03-23T11:05:57;14.90;77.80
298;DHT22;133;49.626;9.680;2023-03-23T11:08:30;14.70;78.70
298;DHT22;133;49.626;9.680;2023-03-23T11:11:15;14.70;79.30
298;DHT22;133;49.626;9.680;2023-03-23T11:13:46;14.80;79.40
298;DHT22;133;49.626;9.680;2023-03-23T11:16:33;14.80;79.80
298;DHT22;133;49.626;9.680;2023-03-23T11:19:11;14.90;80.00
298;DHT22;133;49.626;9.680;2023-03-23T11:21:38;15.00;79.80
298;DHT22;133;49.626;9.680;2023-03-23T11:24:05;15.10;79.90
298;DHT22;133;49.626;9.680;2023-03-23T11:26:33;15.30;79.50
298;DHT22;133;49.626;9.680;2023-03-23T11:29:20;15.40;79.10
298;DHT22;133;49.626;9.680;2023-03-23T11:31:48;15.20;79.50
298;DHT22;133;49.626;9.680;2023-03-23T11:34:33;15.20;79.90
298;DHT22;133;49.626;9.680;2023-03-23T11:37:12;15.10;79.80
298;DHT22;133;49.626;9.680;2023-03-23T11:39:59;15.10;79.80
298;DHT22;133;49.626;9.680;2023-03-23T11:42:46;15.30;79.80
298;DHT22;133;49.626;9.680;2023-03-23T11:50:32;15.90;77.70
298;DHT22;133;49.626;9.680;2023-03-23T11:58:18;16.30;77.10
298;DHT22;133;49.626;9.680;2023-03-23T12:04:08;16.20;76.50
298;DHT22;133;49.626;9.680;2023-03-23T12:07:11;15.60;77.80
298;DHT22;133;49.626;9.680;2023-03-23T12:26:02;14.90;81.90
298;DHT22;133;49.626;9.680;2023-03-23T12:31:42;14.60;86.60
298;DHT22;133;49.626;9.680;2023-03-23T12:44:50;14.30;88.30
298;DHT22;133;49.626;9.680;2023-03-23T12:47:37;14.30;88.10
298;DHT22;133;49.626;9.680;2023-03-23T12:50:33;14.70;88.10
298;DHT22;133;49.626;9.680;2023-03-23T12:53:13;15.00;87.00
298;DHT22;133;49.626;9.680;2023-03-23T12:56:02;15.20;86.00
298;DHT22;133;49.626;9.680;2023-03-23T12:58:34;15.30;85.40
298;DHT22;133;49.626;9.680;2023-03-23T13:01:10;15.40;84.50
298;DHT22;133;49.626;9.680;2023-03-23T13:06:54;15.10;84.50
298;DHT22;133;49.626;9.680;2023-03-23T13:09:27;14.90;84.80
298;DHT22;133;49.626;9.680;2023-03-23T13:11:56;14.90;84.70
298;DHT22;133;49.626;9.680;2023-03-23T13:17:25;15.00;83.90
298;DHT22;133;49.626;9.680;2023-03-23T13:25:38;15.20;82.40
298;DHT22;133;49.626;9.680;2023-03-23T13:28:04;15.20;83.00
298;DHT22;133;49.626;9.680;2023-03-23T13:30:31;15.30;82.00
298;DHT22;133;49.626;9.680;2023-03-23T13:33:04;15.30;82.40
298;DHT22;133;49.626;9.680;2023-03-23T13:35:36;15.50;82.10
298;DHT22;133;49.626;9.680;2023-03-23T13:38:15;15.40;80.50
298;DHT22;133;49.626;9.680;2023-03-23T13:40:44;15.30;81.10
298;DHT22;133;49.626;9.680;2023-03-23T13:43:10;15.40;80.50
298;DHT22;133;49.626;9.680;2023-03-23T13:45:46;15.30;80.40
298;DHT22;133;49.626;9.680;2023-03-23T13:50:56;15.40;80.20
298;DHT22;133;49.626;9.680;2023-03-23T13:53:29;15.40;80.00
298;DHT22;133;49.626;9.680;2023-03-23T13:56:32;15.50;79.00
298;DHT22;133;49.626;9.680;2023-03-23T13:59:30;15.70;79.00
298;DHT22;133;49.626;9.680;2023-03-23T14:02:29;15.60;78.60
298;DHT22;133;49.626;9.680;2023-03-23T14:04:45;15.50;78.50
298;DHT22;133;49.626;9.680;2023-03-23T14:07:16;15.40;78.90
298;DHT22;133;49.626;9.680;2023-03-23T14:09:44;15.40;79.00
298;DHT22;133;49.626;9.680;2023-03-23T14:12:15;15.20;78.60
298;DHT22;133;49.626;9.680;2023-03-23T14:14:44;15.00;79.10
298;DHT22;133;49.626;9.680;2023-03-23T14:17:21;14.80;79.30
298;DHT22;133;49.626;9.680;2023-03-23T14:19:53;14.70;79.90
298;DHT22;133;49.626;9.680;2023-03-23T14:22:27;14.70;80.20
298;DHT22;133;49.626;9.680;2023-03-23T14:25:00;14.80;80.20
298;DHT22;133;49.626;9.680;2023-03-23T14:27:27;14.70;80.10
298;DHT22;133;49.626;9.680;2023-03-23T14:30:14;14.70;80.20
298;DHT22;133;49.626;9.680;2023-03-23T14:32:40;14.70;80.40
298;DHT22;133;49.626;9.680;2023-03-23T14:35:12;14.60;80.40
298;DHT22;133;49.626;9.680;2023-03-23T14:37:38;14.60;80.20
298;DHT22;133;49.626;9.680;2023-03-23T14:40:04;14.60;80.20
298;DHT22;133;49.626;9.680;2023-03-23T14:42:35;14.60;80.50
298;DHT22;133;49.626;9.680;2023-03-23T14:45:03;14.50;80.10
298;DHT22;133;49.626;9.680;2023-03-23T14:47:35;14.40;80.40
298;DHT22;133;49.626;9.680;2023-03-23T14:50:04;14.50;80.50
298;DHT22;133;49.626;9.680;2023-03-23T14:52:34;14.60;80.30
298;DHT22;133;49.626;9.680;2023-03-23T14:55:17;14.70;80.10
298;DHT22;133;49.626;9.680;2023-03-23T14:57:43;14.70;79.70
298;DHT22;133;49.626;9.680;2023-03-23T15:00:29;14.80;79.20
298;DHT22;133;49.626;9.680;2023-03-23T15:02:59;14.80;78.90
298;DHT22;133;49.626;9.680;2023-03-23T15:05:30;14.90;78.20
298;DHT22;133;49.626;9.680;2023-03-23T15:08:03;14.90;78.20
298;DHT22;133;49.626;9.680;2023-03-23T15:10:30;15.00;77.90
298;DHT22;133;49.626;9.680;2023-03-23T15:12:56;14.90;77.80
298;DHT22;133;49.626;9.680;2023-03-23T15:15:34;14.90;77.80
298;DHT22;133;49.626;9.680;2023-03-23T15:18:01;15.00;77.70
298;DHT22;133;49.626;9.680;2023-03-23T15:20:45;14.80;78.00
298;DHT22;133;49.626;9.680;2023-03-23T15:23:16;14.80;78.30
298;DHT22;133;49.626;9.680;2023-03-23T15:25:49;14.80;78.40
298;DHT22;133;49.626;9.680;2023-03-23T15:28:20;14.70;78.70
298;DHT22;133;49.626;9.680;2023-03-23T15:30:49;14.70;78.90
298;DHT22;133;49.626;9.680;2023-03-23T15:33:16;14.80;78.70
298;DHT22;133;49.626;9.680;2023-03-23T15:35:49;14.90;78.60
298;DHT22;133;49.626;9.680;2023-03-23T15:38:24;14.80;78.50
298;DHT22;133;49.626;9.680;2023-03-23T15:40:54;14.80;78.70
298;DHT22;133;49.626;9.680;2023-03-23T15:43:26;14.70;78.80
298;DHT22;133;49.626;9.680;2023-03-23T15:48:22;14.90;78.60
298;DHT22;133;49.626;9.680;2023-03-23T15:50:49;14.90;78.70
298;DHT22;133;49.626;9.680;2023-03-23T15:53:31;14.90;78.60
298;DHT22;133;49.626;9.680;2023-03-23T15:56:01;14.80;79.00
298;DHT22;133;49.626;9.680;2023-03-23T15:58:29;14.80;78.80
298;DHT22;133;49.626;9.680;2023-03-23T16:00:55;14.70;79.20
298;DHT22;133;49.626;9.680;2023-03-23T16:03:42;14.70;79.60
298;DHT22;133;49.626;9.680;2023-03-23T16:06:12;14.70;79.80
298;DHT22;133;49.626;9.680;2023-03-23T16:08:38;14.80;79.30
298;DHT22;133;49.626;9.680;2023-03-23T16:11:08;14.80;79.30
298;DHT22;133;49.626;9.680;2023-03-23T16:13:34;14.70;79.60
298;DHT22;133;49.626;9.680;2023-03-23T16:16:00;14.70;79.60
298;DHT22;133;49.626;9.680;2023-03-23T16:18:25;14.70;79.80
298;DHT22;133;49.626;9.680;2023-03-23T16:20:51;14.70;79.90
298;DHT22;133;49.626;9.680;2023-03-23T16:23:17;14.70;80.00
298;DHT22;133;49.626;9.680;2023-03-23T16:25:43;14.70;79.90
298;DHT22;133;49.626;9.680;2023-03-23T16:28:12;14.60;80.10
298;DHT22;133;49.626;9.680;2023-03-23T16:30:40;14.60;80.20
298;DHT22;133;49.626;9.680;2023-03-23T16:33:06;14.60;80.40
298;DHT22;133;49.626;9.680;2023-03-23T16:35:32;14.60;80.50
298;DHT22;133;49.626;9.680;2023-03-23T16:37:58;14.50;80.50
298;DHT22;133;49.626;9.680;2023-03-23T16:40:24;14.50;80.70
298;DHT22;133;49.626;9.680;2023-03-23T16:42:51;14.60;80.50
298;DHT22;133;49.626;9.680;2023-03-23T16:45:17;14.60;80.30
298;DHT22;133;49.626;9.680;2023-03-23T16:47:43;14.60;80.30
298;DHT22;133;49.626;9.680;2023-03-23T16:50:12;14.60;80.30
298;DHT22;133;49.626;9.680;2023-03-23T16:52:42;14.70;80.30
298;DHT22;133;49.626;9.680;2023-03-23T16:55:09;14.70;80.00
298;DHT22;133;49.626;9.680;2023-03-23T16:57:36;14.80;79.70
298;DHT22;133;49.626;9.680;2023-03-23T17:00:09;14.70;79.70
298;DHT22;133;49.626;9.680;2023-03-23T17:02:36;14.80;79.60
298;DHT22;133;49.626;9.680;2023-03-23T17:05:02;14.90;79.30
298;DHT22;133;49.626;9.680;2023-03-23T17:07:28;14.80;79.30
298;DHT22;133;49.626;9.680;2023-03-23T17:09:54;14.90;79.30
298;DHT22;133;49.626;9.680;2023-03-23T17:12:20;14.80;79.40
298;DHT22;133;49.626;9.680;2023-03-23T17:14:46;14.80;79.50
298;DHT22;133;49.626;9.680;2023-03-23T17:17:11;14.60;79.80
298;DHT22;133;49.626;9.680;2023-03-23T17:19:37;14.60;80.00
298;DHT22;133;49.626;9.680;2023-03-23T17:22:03;14.60;80.00
298;DHT22;133;49.626;9.680;2023-03-23T17:24:29;14.70;79.90
298;DHT22;133;49.626;9.680;2023-03-23T17:26:54;14.60;80.10
298;DHT22;133;49.626;9.680;2023-03-23T17:29:20;14.60;80.00
298;DHT22;133;49.626;9.680;2023-03-23T17:31:47;14.60;80.00
298;DHT22;133;49.626;9.680;2023-03-23T17:34:13;14.60;80.10
298;DHT22;133;49.626;9.680;2023-03-23T17:36:39;14.60;80.20
298;DHT22;133;49.626;9.680;2023-03-23T17:39:05;14.50;80.30
298;DHT22;133;49.626;9.680;2023-03-23T17:41:31;14.50;80.40
298;DHT22;133;49.626;9.680;2023-03-23T17:43:56;14.50;80.50
298;DHT22;133;49.626;9.680;2023-03-23T17:46:22;14.50;80.40
298;DHT22;133;49.626;9.680;2023-03-23T17:48:48;14.50;80.50
298;DHT22;133;49.626;9.680;2023-03-23T17:51:13;14.60;80.40
298;DHT22;133;49.626;9.680;2023-03-23T17:53:39;14.50;80.40
298;DHT22;133;49.626;9.680;2023-03-23T17:56:06;14.60;80.20
298;DHT22;133;49.626;9.680;2023-03-23T17:58:32;14.60;80.30
298;DHT22;133;49.626;9.680;2023-03-23T18:00:57;14.60;80.20
298;DHT22;133;49.626;9.680;2023-03-23T18:03:24;14.60;80.10
298;DHT22;133;49.626;9.680;2023-03-23T18:05:50;14.60;80.10
298;DHT22;133;49.626;9.680;2023-03-23T18:08:20;14.70;79.90
298;DHT22;133;49.626;9.680;2023-03-23T18:10:48;14.70;79.80
298;DHT22;133;49.626;9.680;2023-03-23T18:13:13;14.80;79.60
298;DHT22;133;49.626;9.680;2023-03-23T18:15:43;14.80;79.40
298;DHT22;133;49.626;9.680;2023-03-23T18:18:08;14.80;79.30
298;DHT22;133;49.626;9.680;2023-03-23T18:20:35;14.80;79.30
298;DHT22;133;49.626;9.680;2023-03-23T18:23:01;14.90;79.30
298;DHT22;133;49.626;9.680;2023-03-23T18:25:29;14.90;79.20
298;DHT22;133;49.626;9.680;2023-03-23T18:27:55;14.90;79.20
298;DHT22;133;49.626;9.680;2023-03-23T18:30:21;14.90;79.30
298;DHT22;133;49.626;9.680;2023-03-23T18:32:47;14.90;79.20
298;DHT22;133;49.626;9.680;2023-03-23T18:35:13;14.90;79.20